sensor_id;sensor_type;location;lat;lon;timestamp;pressure;altitude;pressure_sealevel;temperature;humidity
61757;BME280;57225;61.460;24.060;2023-05-21T00:00:29;101593.31;;;8.34;72.86
61757;BME280;57225;61.460;24.060;2023-05-21T00:03:13;101597.88;;;8.30;72.49
61757;BME280;57225;61.460;24.060;2023-05-21T00:05:59;101592.50;;;8.33;72.25
61757;BME280;57225;61.460;24.060;2023-05-21T00:08:44;101581.56;;;8.28;72.59
61757;BME280;57225;61.460;24.060;2023-05-21T00:11:32;101587.75;;;8.34;73.31
61757;BME280;57225;61.460;24.060;2023-05-21T00:14:18;101591.53;;;8.29;73.48
61757;BME280;57225;61.460;24.060;2023-05-21T00:17:02;101571.34;;;8.04;74.44
61757;BME280;57225;61.460;24.060;2023-05-21T00:19:46;101580.47;;;8.05;74.57
61757;BME280;57225;61.460;24.060;2023-05-21T00:22:33;101587.56;;;8.02;74.36
61757;BME280;57225;61.460;24.060;2023-05-21T00:25:19;101596.31;;;8.04;74.58
61757;BME280;57225;61.460;24.060;2023-05-21T00:28:04;101581.66;;;7.92;75.17
61757;BME280;57225;61.460;24.060;2023-05-21T00:30:48;101600.84;;;7.97;75.42
61757;BME280;57225;61.460;24.060;2023-05-21T00:33:32;101606.97;;;7.90;75.87
61757;BME280;57225;61.460;24.060;2023-05-21T00:36:17;101570.72;;;7.71;76.22
61757;BME280;57225;61.460;24.060;2023-05-21T00:39:01;101607.47;;;7.80;76.58
61757;BME280;57225;61.460;24.060;2023-05-21T00:41:47;101603.88;;;7.67;77.17
61757;BME280;57225;61.460;24.060;2023-05-21T00:44:32;101602.59;;;7.53;78.56
61757;BME280;57225;61.460;24.060;2023-05-21T00:47:17;101598.00;;;7.45;78.32
61757;BME280;57225;61.460;24.060;2023-05-21T00:50:02;101602.03;;;7.47;77.98
61757;BME280;57225;61.460;24.060;2023-05-21T00:52:48;101610.00;;;7.37;78.26
61757;BME280;57225;61.460;24.060;2023-05-21T00:55:37;101609.19;;;7.48;78.07
61757;BME280;57225;61.460;24.060;2023-05-21T00:58:21;101616.84;;;7.51;77.91
61757;BME280;57225;61.460;24.060;2023-05-21T01:01:19;101605.50;;;7.44;78.42
61757;BME280;57225;61.460;24.060;2023-05-21T01:04:06;101617.28;;;7.41;78.72
61757;BME280;57225;61.460;24.060;2023-05-21T01:06:51;101617.28;;;7.41;78.56
61757;BME280;57225;61.460;24.060;2023-05-21T01:09:36;101608.38;;;7.36;79.69
61757;BME280;57225;61.460;24.060;2023-05-21T01:12:22;101624.78;;;7.41;80.15
61757;BME280;57225;61.460;24.060;2023-05-21T01:15:06;101623.38;;;7.35;79.85
61757;BME280;57225;61.460;24.060;2023-05-21T01:17:53;101614.72;;;7.24;80.41
61757;BME280;57225;61.460;24.060;2023-05-21T01:20:38;101611.91;;;7.12;80.27
61757;BME280;57225;61.460;24.060;2023-05-21T01:23:37;101631.31;;;7.12;81.49
61757;BME280;57225;61.460;24.060;2023-05-21T01:26:22;101618.69;;;7.02;81.53
61757;BME280;57225;61.460;24.060;2023-05-21T01:29:09;101639.09;;;7.18;81.36
61757;BME280;57225;61.460;24.060;2023-05-21T01:38:13;101626.91;;;6.99;83.74
61757;BME280;57225;61.460;24.060;2023-05-21T01:41:09;101599.63;;;6.89;83.83
61757;BME280;57225;61.460;24.060;2023-05-21T01:43:54;101624.34;;;6.94;83.99
61757;BME280;57225;61.460;24.060;2023-05-21T01:46:39;101619.94;;;6.93;84.23
61757;BME280;57225;61.460;24.060;2023-05-21T01:49:24;101628.38;;;6.96;84.53
61757;BME280;57225;61.460;24.060;2023-05-21T01:52:09;101619.03;;;6.89;84.58
61757;BME280;57225;61.460;24.060;2023-05-21T01:54:55;101616.47;;;6.96;84.30
61757;BME280;57225;61.460;24.060;2023-05-21T01:57:42;101619.19;;;7.04;84.63
61757;BME280;57225;61.460;24.060;2023-05-21T02:00:26;101620.78;;;7.05;84.34
61757;BME280;57225;61.460;24.060;2023-05-21T02:03:15;101619.91;;;7.13;83.96
61757;BME280;57225;61.460;24.060;2023-05-21T02:06:00;101612.59;;;7.09;84.39
61757;BME280;57225;61.460;24.060;2023-05-21T02:08:45;101622.78;;;7.17;84.16
61757;BME280;57225;61.460;24.060;2023-05-21T02:11:30;101604.97;;;7.06;84.01
61757;BME280;57225;61.460;24.060;2023-05-21T02:14:15;101619.53;;;7.15;84.93
61757;BME280;57225;61.460;24.060;2023-05-21T02:16:59;101606.50;;;7.15;85.13
61757;BME280;57225;61.460;24.060;2023-05-21T02:19:44;101598.72;;;7.09;84.95
61757;BME280;57225;61.460;24.060;2023-05-21T02:22:28;101617.25;;;7.17;84.60
61757;BME280;57225;61.460;24.060;2023-05-21T02:25:15;101609.25;;;7.15;84.08
61757;BME280;57225;61.460;24.060;2023-05-21T02:28:01;101616.69;;;7.23;83.99
61757;BME280;57225;61.460;24.060;2023-05-21T02:30:46;101612.88;;;7.28;85.32
61757;BME280;57225;61.460;24.060;2023-05-21T02:33:31;101612.53;;;7.30;85.08
61757;BME280;57225;61.460;24.060;2023-05-21T02:36:15;101603.41;;;7.29;85.00
61757;BME280;57225;61.460;24.060;2023-05-21T02:39:01;101603.88;;;7.43;83.89
61757;BME280;57225;61.460;24.060;2023-05-21T02:41:46;101603.88;;;7.43;80.98
61757;BME280;57225;61.460;24.060;2023-05-21T02:44:30;101600.44;;;7.58;79.83
61757;BME280;57225;61.460;24.060;2023-05-21T02:47:15;101621.00;;;7.82;79.03
61757;BME280;57225;61.460;24.060;2023-05-21T02:50:00;101614.28;;;7.95;78.32
61757;BME280;57225;61.460;24.060;2023-05-21T02:52:44;101602.03;;;7.96;78.03
61757;BME280;57225;61.460;24.060;2023-05-21T02:55:30;101611.00;;;8.17;77.93
61757;BME280;57225;61.460;24.060;2023-05-21T02:58:15;101615.63;;;8.25;78.65
61757;BME280;57225;61.460;24.060;2023-05-21T03:01:19;101622.59;;;8.31;78.98
61757;BME280;57225;61.460;24.060;2023-05-21T03:04:04;101620.56;;;8.44;78.81
61757;BME280;57225;61.460;24.060;2023-05-21T03:06:48;101611.38;;;8.56;77.59
61757;BME280;57225;61.460;24.060;2023-05-21T03:09:38;101619.59;;;8.64;77.07
61757;BME280;57225;61.460;24.060;2023-05-21T03:12:22;101612.81;;;8.77;76.59
61757;BME280;57225;61.460;24.060;2023-05-21T03:15:07;101603.16;;;8.87;75.84
61757;BME280;57225;61.460;24.060;2023-05-21T03:17:53;101606.59;;;8.96;74.89
61757;BME280;57225;61.460;24.060;2023-05-21T03:20:38;101608.38;;;9.04;74.71
61757;BME280;57225;61.460;24.060;2023-05-21T03:23:33;101614.16;;;9.27;74.71
61757;BME280;57225;61.460;24.060;2023-05-21T03:26:18;101586.78;;;9.13;74.82
61757;BME280;57225;61.460;24.060;2023-05-21T03:29:02;101599.16;;;9.32;74.96
61757;BME280;57225;61.460;24.060;2023-05-21T03:31:47;101612.47;;;9.54;74.77
61757;BME280;57225;61.460;24.060;2023-05-21T03:34:33;101609.50;;;9.62;74.45
61757;BME280;57225;61.460;24.060;2023-05-21T03:37:18;101607.75;;;10.05;72.65
61757;BME280;57225;61.460;24.060;2023-05-21T03:40:03;101611.50;;;10.47;71.13
61757;BME280;57225;61.460;24.060;2023-05-21T03:42:48;101573.19;;;10.44;70.56
61757;BME280;57225;61.460;24.060;2023-05-21T03:45:34;101606.34;;;10.69;70.37
61757;BME280;57225;61.460;24.060;2023-05-21T03:48:18;101594.00;;;10.70;70.15
61757;BME280;57225;61.460;24.060;2023-05-21T03:51:02;101587.84;;;10.80;69.83
61757;BME280;57225;61.460;24.060;2023-05-21T03:53:47;101603.91;;;11.06;69.03
61757;BME280;57225;61.460;24.060;2023-05-21T03:56:31;101596.75;;;11.08;69.20
61757;BME280;57225;61.460;24.060;2023-05-21T03:59:16;101600.44;;;11.35;68.78
61757;BME280;57225;61.460;24.060;2023-05-21T04:02:02;101605.94;;;12.30;65.76
61757;BME280;57225;61.460;24.060;2023-05-21T04:04:47;101590.91;;;13.08;62.81
61757;BME280;57225;61.460;24.060;2023-05-21T04:07:31;101601.91;;;14.37;58.69
61757;BME280;57225;61.460;24.060;2023-05-21T04:10:16;101590.44;;;14.63;56.36
61757;BME280;57225;61.460;24.060;2023-05-21T04:13:00;101603.09;;;14.32;56.90
61757;BME280;57225;61.460;24.060;2023-05-21T04:15:45;101607.91;;;13.74;59.01
61757;BME280;57225;61.460;24.060;2023-05-21T04:18:29;101606.00;;;13.00;60.88
61757;BME280;57225;61.460;24.060;2023-05-21T04:21:14;101617.38;;;12.81;61.49
61757;BME280;57225;61.460;24.060;2023-05-21T04:23:59;101620.06;;;12.70;62.20
61757;BME280;57225;61.460;24.060;2023-05-21T04:26:44;101622.41;;;12.68;62.67
61757;BME280;57225;61.460;24.060;2023-05-21T04:29:29;101615.91;;;12.57;61.98
61757;BME280;57225;61.460;24.060;2023-05-21T04:32:13;101619.16;;;12.63;61.79
61757;BME280;57225;61.460;24.060;2023-05-21T04:35:00;101616.03;;;12.68;61.89
61757;BME280;57225;61.460;24.060;2023-05-21T04:37:45;101616.53;;;12.77;61.90
61757;BME280;57225;61.460;24.060;2023-05-21T04:40:29;101616.59;;;12.84;58.81
61757;BME280;57225;61.460;24.060;2023-05-21T04:43:14;101606.63;;;12.83;58.60
61757;BME280;57225;61.460;24.060;2023-05-21T04:46:00;101624.41;;;13.86;56.90
61757;BME280;57225;61.460;24.060;2023-05-21T04:48:44;101617.03;;;16.61;49.80
61757;BME280;57225;61.460;24.060;2023-05-21T04:51:29;101618.78;;;19.72;40.52
61757;BME280;57225;61.460;24.060;2023-05-21T04:54:14;101634.69;;;21.63;35.12
61757;BME280;57225;61.460;24.060;2023-05-21T04:56:59;101632.91;;;23.05;30.98
61757;BME280;57225;61.460;24.060;2023-05-21T04:59:43;101630.09;;;23.68;28.55
61757;BME280;57225;61.460;24.060;2023-05-21T05:02:28;101625.97;;;23.94;27.89
61757;BME280;57225;61.460;24.060;2023-05-21T05:05:13;101627.00;;;23.88;28.92
61757;BME280;57225;61.460;24.060;2023-05-21T05:07:58;101627.81;;;23.38;30.06
61757;BME280;57225;61.460;24.060;2023-05-21T05:10:42;101625.03;;;22.96;30.99
61757;BME280;57225;61.460;24.060;2023-05-21T05:13:27;101628.78;;;22.64;31.88
61757;BME280;57225;61.460;24.060;2023-05-21T05:16:12;101636.28;;;22.13;32.02
61757;BME280;57225;61.460;24.060;2023-05-21T05:19:02;101626.63;;;21.46;32.15
61757;BME280;57225;61.460;24.060;2023-05-21T05:21:46;101613.19;;;20.12;33.25
61757;BME280;57225;61.460;24.060;2023-05-21T05:24:31;101620.06;;;19.91;36.12
61757;BME280;57225;61.460;24.060;2023-05-21T05:27:15;101626.50;;;19.41;37.56
61757;BME280;57225;61.460;24.060;2023-05-21T05:30:01;101617.59;;;18.85;37.52
61757;BME280;57225;61.460;24.060;2023-05-21T05:32:46;101623.63;;;18.87;36.46
61757;BME280;57225;61.460;24.060;2023-05-21T05:35:31;101626.72;;;18.66;38.35
61757;BME280;57225;61.460;24.060;2023-05-21T05:38:16;101627.66;;;18.56;37.36
61757;BME280;57225;61.460;24.060;2023-05-21T05:41:00;101617.03;;;18.67;35.76
61757;BME280;57225;61.460;24.060;2023-05-21T05:43:46;101627.03;;;18.72;36.21
61757;BME280;57225;61.460;24.060;2023-05-21T05:46:30;101614.41;;;18.83;40.04
61757;BME280;57225;61.460;24.060;2023-05-21T05:49:14;101602.78;;;18.40;40.54
61757;BME280;57225;61.460;24.060;2023-05-21T05:52:00;101614.13;;;18.37;37.96
61757;BME280;57225;61.460;24.060;2023-05-21T05:54:44;101618.84;;;18.47;39.58
61757;BME280;57225;61.460;24.060;2023-05-21T05:57:30;101596.78;;;18.72;39.92
61757;BME280;57225;61.460;24.060;2023-05-21T06:00:14;101613.63;;;19.10;40.19
61757;BME280;57225;61.460;24.060;2023-05-21T06:02:59;101600.47;;;19.26;39.44
61757;BME280;57225;61.460;24.060;2023-05-21T06:05:46;101588.41;;;18.96;37.60
61757;BME280;57225;61.460;24.060;2023-05-21T06:08:31;101597.72;;;18.93;40.03
61757;BME280;57225;61.460;24.060;2023-05-21T06:11:17;101598.56;;;19.20;41.47
61757;BME280;57225;61.460;24.060;2023-05-21T06:14:02;101597.28;;;19.51;41.37
61757;BME280;57225;61.460;24.060;2023-05-21T06:16:46;101600.00;;;19.58;39.99
61757;BME280;57225;61.460;24.060;2023-05-21T06:19:31;101594.06;;;19.49;40.81
61757;BME280;57225;61.460;24.060;2023-05-21T06:22:15;101589.72;;;19.41;37.15
61757;BME280;57225;61.460;24.060;2023-05-21T06:25:00;101591.44;;;19.62;39.74
61757;BME280;57225;61.460;24.060;2023-05-21T06:27:44;101580.06;;;19.89;42.21
61757;BME280;57225;61.460;24.060;2023-05-21T06:30:29;101571.56;;;19.89;38.78
61757;BME280;57225;61.460;24.060;2023-05-21T06:33:13;101585.22;;;19.94;39.60
61757;BME280;57225;61.460;24.060;2023-05-21T06:35:58;101593.13;;;20.26;37.92
61757;BME280;57225;61.460;24.060;2023-05-21T06:38:42;101590.41;;;20.42;38.77
61757;BME280;57225;61.460;24.060;2023-05-21T06:41:27;101573.09;;;20.36;37.10
61757;BME280;57225;61.460;24.060;2023-05-21T06:44:11;101590.66;;;19.61;35.36
61757;BME280;57225;61.460;24.060;2023-05-21T06:46:56;101565.53;;;19.40;36.93
61757;BME280;57225;61.460;24.060;2023-05-21T06:49:40;101574.66;;;19.75;36.15
61757;BME280;57225;61.460;24.060;2023-05-21T06:52:25;101582.84;;;19.42;37.94
61757;BME280;57225;61.460;24.060;2023-05-21T06:55:10;101576.16;;;19.59;38.19
61757;BME280;57225;61.460;24.060;2023-05-21T06:57:56;101569.00;;;19.51;34.30
61757;BME280;57225;61.460;24.060;2023-05-21T07:00:41;101564.69;;;18.90;35.71
61757;BME280;57225;61.460;24.060;2023-05-21T07:03:25;101573.34;;;19.29;38.41
61757;BME280;57225;61.460;24.060;2023-05-21T07:06:09;101575.06;;;19.73;36.88
61757;BME280;57225;61.460;24.060;2023-05-21T07:08:54;101570.56;;;20.22;33.47
61757;BME280;57225;61.460;24.060;2023-05-21T07:11:39;101560.31;;;20.68;35.24
61757;BME280;57225;61.460;24.060;2023-05-21T07:14:25;101578.38;;;21.30;36.86
61757;BME280;57225;61.460;24.060;2023-05-21T07:17:10;101566.59;;;21.47;36.18
61757;BME280;57225;61.460;24.060;2023-05-21T07:19:54;101569.06;;;21.78;33.66
61757;BME280;57225;61.460;24.060;2023-05-21T07:22:39;101572.25;;;21.80;34.82
61757;BME280;57225;61.460;24.060;2023-05-21T07:25:26;101555.03;;;21.87;34.26
61757;BME280;57225;61.460;24.060;2023-05-21T07:28:10;101555.47;;;22.01;35.39
61757;BME280;57225;61.460;24.060;2023-05-21T07:30:54;101556.47;;;22.24;31.94
61757;BME280;57225;61.460;24.060;2023-05-21T07:33:39;101551.75;;;21.88;34.55
61757;BME280;57225;61.460;24.060;2023-05-21T07:36:24;101543.31;;;22.01;36.62
61757;BME280;57225;61.460;24.060;2023-05-21T07:39:09;101560.69;;;22.19;34.64
61757;BME280;57225;61.460;24.060;2023-05-21T07:41:53;101553.09;;;22.00;30.90
61757;BME280;57225;61.460;24.060;2023-05-21T07:44:38;101546.13;;;22.71;33.78
61757;BME280;57225;61.460;24.060;2023-05-21T07:47:23;101552.00;;;23.06;34.13
61757;BME280;57225;61.460;24.060;2023-05-21T07:50:08;101547.56;;;23.30;31.16
61757;BME280;57225;61.460;24.060;2023-05-21T07:52:53;101555.41;;;23.39;31.37
61757;BME280;57225;61.460;24.060;2023-05-21T07:55:38;101554.84;;;23.56;30.32
61757;BME280;57225;61.460;24.060;2023-05-21T07:58:30;101558.47;;;23.70;29.47
61757;BME280;57225;61.460;24.060;2023-05-21T08:01:15;101554.13;;;23.65;31.69
61757;BME280;57225;61.460;24.060;2023-05-21T08:04:00;101545.66;;;23.87;30.70
61757;BME280;57225;61.460;24.060;2023-05-21T08:06:48;101550.41;;;23.55;28.51
61757;BME280;57225;61.460;24.060;2023-05-21T08:09:34;101549.03;;;23.09;28.45
61757;BME280;57225;61.460;24.060;2023-05-21T08:12:18;101540.94;;;23.46;31.00
61757;BME280;57225;61.460;24.060;2023-05-21T08:15:03;101541.06;;;23.42;28.53
61757;BME280;57225;61.460;24.060;2023-05-21T08:17:50;101541.44;;;22.94;26.50
61757;BME280;57225;61.460;24.060;2023-05-21T08:20:34;101539.91;;;21.61;27.24
61757;BME280;57225;61.460;24.060;2023-05-21T08:23:32;101538.69;;;22.07;31.28
61757;BME280;57225;61.460;24.060;2023-05-21T08:26:16;101535.91;;;22.61;28.31
61757;BME280;57225;61.460;24.060;2023-05-21T08:29:00;101526.19;;;23.25;29.67
61757;BME280;57225;61.460;24.060;2023-05-21T08:31:45;101540.50;;;23.22;24.84
61757;BME280;57225;61.460;24.060;2023-05-21T08:34:30;101539.38;;;23.57;27.97
61757;BME280;57225;61.460;24.060;2023-05-21T08:37:14;101543.97;;;24.11;26.61
61757;BME280;57225;61.460;24.060;2023-05-21T08:40:01;101527.47;;;24.06;27.64
61757;BME280;57225;61.460;24.060;2023-05-21T08:42:48;101546.09;;;23.51;29.37
61757;BME280;57225;61.460;24.060;2023-05-21T08:45:33;101538.00;;;23.49;29.02
61757;BME280;57225;61.460;24.060;2023-05-21T08:48:43;101527.38;;;23.97;29.91
61757;BME280;57225;61.460;24.060;2023-05-21T08:51:27;101520.16;;;24.05;27.69
61757;BME280;57225;61.460;24.060;2023-05-21T08:54:11;101510.19;;;24.22;29.41
61757;BME280;57225;61.460;24.060;2023-05-21T08:56:57;101527.13;;;24.69;28.28
61757;BME280;57225;61.460;24.060;2023-05-21T08:59:42;101518.66;;;24.35;26.37
61757;BME280;57225;61.460;24.060;2023-05-21T09:02:28;101515.91;;;24.22;29.23
61757;BME280;57225;61.460;24.060;2023-05-21T09:05:16;101524.63;;;24.06;27.05
61757;BME280;57225;61.460;24.060;2023-05-21T09:08:05;101524.16;;;24.08;27.28
61757;BME280;57225;61.460;24.060;2023-05-21T09:10:51;101524.00;;;23.89;27.18
61757;BME280;57225;61.460;24.060;2023-05-21T09:13:36;101521.63;;;24.75;28.77
61757;BME280;57225;61.460;24.060;2023-05-21T09:16:21;101521.56;;;25.28;25.39
61757;BME280;57225;61.460;24.060;2023-05-21T09:19:06;101499.97;;;24.56;25.85
61757;BME280;57225;61.460;24.060;2023-05-21T09:21:50;101497.63;;;25.34;26.53
61757;BME280;57225;61.460;24.060;2023-05-21T09:24:38;101522.16;;;25.72;25.49
61757;BME280;57225;61.460;24.060;2023-05-21T09:27:23;101523.09;;;25.59;25.69
61757;BME280;57225;61.460;24.060;2023-05-21T09:30:13;101522.66;;;24.37;24.30
61757;BME280;57225;61.460;24.060;2023-05-21T09:32:58;101512.88;;;24.91;25.47
61757;BME280;57225;61.460;24.060;2023-05-21T09:35:44;101517.16;;;24.74;28.03
61757;BME280;57225;61.460;24.060;2023-05-21T09:38:32;101495.88;;;24.13;24.23
61757;BME280;57225;61.460;24.060;2023-05-21T09:41:18;101498.38;;;24.55;24.28
61757;BME280;57225;61.460;24.060;2023-05-21T09:44:04;101505.00;;;23.27;24.46
61757;BME280;57225;61.460;24.060;2023-05-21T09:46:49;101493.19;;;22.77;25.81
61757;BME280;57225;61.460;24.060;2023-05-21T09:49:36;101496.56;;;23.23;27.60
61757;BME280;57225;61.460;24.060;2023-05-21T09:52:23;101479.63;;;23.19;23.84
61757;BME280;57225;61.460;24.060;2023-05-21T09:55:09;101492.97;;;22.84;23.33
61757;BME280;57225;61.460;24.060;2023-05-21T09:57:56;101488.19;;;23.07;22.88
61757;BME280;57225;61.460;24.060;2023-05-21T10:00:41;101487.78;;;24.12;25.57
61757;BME280;57225;61.460;24.060;2023-05-21T10:03:26;101493.16;;;24.53;24.12
61757;BME280;57225;61.460;24.060;2023-05-21T10:06:12;101492.34;;;25.23;23.63
61757;BME280;57225;61.460;24.060;2023-05-21T10:09:02;101485.16;;;25.95;22.80
61757;BME280;57225;61.460;24.060;2023-05-21T10:11:52;101484.38;;;25.95;20.50
61757;BME280;57225;61.460;24.060;2023-05-21T10:14:38;101492.63;;;25.07;21.12
61757;BME280;57225;61.460;24.060;2023-05-21T10:17:26;101492.97;;;25.09;20.43
61757;BME280;57225;61.460;24.060;2023-05-21T10:20:12;101488.56;;;24.56;19.83
61757;BME280;57225;61.460;24.060;2023-05-21T10:22:57;101490.44;;;25.30;21.97
61757;BME280;57225;61.460;24.060;2023-05-21T10:25:42;101474.78;;;25.43;19.93
61757;BME280;57225;61.460;24.060;2023-05-21T10:28:27;101479.28;;;26.08;20.68
61757;BME280;57225;61.460;24.060;2023-05-21T10:31:12;101471.50;;;26.09;18.63
61757;BME280;57225;61.460;24.060;2023-05-21T10:33:58;101465.78;;;26.27;18.54
61757;BME280;57225;61.460;24.060;2023-05-21T10:36:43;101470.72;;;26.08;18.22
61757;BME280;57225;61.460;24.060;2023-05-21T10:39:29;101475.16;;;25.82;17.19
61757;BME280;57225;61.460;24.060;2023-05-21T10:45:30;101459.50;;;24.79;19.71
61757;BME280;57225;61.460;24.060;2023-05-21T10:48:26;101462.16;;;25.04;18.07
61757;BME280;57225;61.460;24.060;2023-05-21T10:51:17;101453.97;;;23.79;18.37
61757;BME280;57225;61.460;24.060;2023-05-21T10:54:37;101454.16;;;23.63;17.92
61757;BME280;57225;61.460;24.060;2023-05-21T11:00:28;101448.72;;;25.14;19.51
61757;BME280;57225;61.460;24.060;2023-05-21T11:03:15;101446.59;;;25.91;17.50
61757;BME280;57225;61.460;24.060;2023-05-21T11:06:01;101441.97;;;26.30;18.45
61757;BME280;57225;61.460;24.060;2023-05-21T11:08:46;101434.72;;;26.95;18.40
61757;BME280;57225;61.460;24.060;2023-05-21T11:11:50;101443.75;;;27.26;20.61
61757;BME280;57225;61.460;24.060;2023-05-21T11:14:38;101438.66;;;27.30;18.41
61757;BME280;57225;61.460;24.060;2023-05-21T11:17:38;101441.84;;;26.66;17.13
61757;BME280;57225;61.460;24.060;2023-05-21T11:20:32;101424.44;;;26.37;18.67
61757;BME280;57225;61.460;24.060;2023-05-21T11:29:41;101416.47;;;27.16;19.14
61757;BME280;57225;61.460;24.060;2023-05-21T11:32:27;101412.50;;;27.61;19.46
61757;BME280;57225;61.460;24.060;2023-05-21T11:35:12;101417.91;;;28.12;17.66
61757;BME280;57225;61.460;24.060;2023-05-21T11:37:57;101395.09;;;26.27;15.68
61757;BME280;57225;61.460;24.060;2023-05-21T11:40:59;101415.53;;;26.44;16.83
61757;BME280;57225;61.460;24.060;2023-05-21T11:43:44;101422.00;;;25.48;18.72
61757;BME280;57225;61.460;24.060;2023-05-21T11:46:29;101416.59;;;26.05;19.02
61757;BME280;57225;61.460;24.060;2023-05-21T11:49:14;101397.81;;;26.13;17.07
61757;BME280;57225;61.460;24.060;2023-05-21T11:51:59;101387.69;;;26.87;19.91
61757;BME280;57225;61.460;24.060;2023-05-21T11:54:52;101414.53;;;27.22;21.39
61757;BME280;57225;61.460;24.060;2023-05-21T11:57:41;101422.47;;;26.61;18.78
61757;BME280;57225;61.460;24.060;2023-05-21T12:00:27;101398.00;;;26.60;20.95
61757;BME280;57225;61.460;24.060;2023-05-21T12:03:12;101397.47;;;27.04;19.73
61757;BME280;57225;61.460;24.060;2023-05-21T12:06:03;101398.59;;;26.64;16.60
61757;BME280;57225;61.460;24.060;2023-05-21T12:08:51;101407.41;;;25.82;18.71
61757;BME280;57225;61.460;24.060;2023-05-21T12:11:41;101387.59;;;24.84;18.97
61757;BME280;57225;61.460;24.060;2023-05-21T12:14:25;101397.22;;;25.45;21.74
61757;BME280;57225;61.460;24.060;2023-05-21T12:17:10;101392.31;;;25.91;20.35
61757;BME280;57225;61.460;24.060;2023-05-21T12:19:56;101378.09;;;26.33;20.05
61757;BME280;57225;61.460;24.060;2023-05-21T12:22:40;101370.53;;;26.87;20.74
61757;BME280;57225;61.460;24.060;2023-05-21T12:25:26;101369.84;;;27.92;19.86
61757;BME280;57225;61.460;24.060;2023-05-21T12:28:12;101376.75;;;26.76;18.68
61757;BME280;57225;61.460;24.060;2023-05-21T12:30:57;101378.34;;;26.77;19.41
61757;BME280;57225;61.460;24.060;2023-05-21T12:33:49;101370.44;;;27.05;18.50
61757;BME280;57225;61.460;24.060;2023-05-21T12:36:34;101371.69;;;26.80;18.51
61757;BME280;57225;61.460;24.060;2023-05-21T12:39:21;101373.63;;;26.41;18.14
61757;BME280;57225;61.460;24.060;2023-05-21T12:42:06;101362.44;;;26.01;17.92
61757;BME280;57225;61.460;24.060;2023-05-21T12:44:54;101380.00;;;26.27;16.57
61757;BME280;57225;61.460;24.060;2023-05-21T12:47:40;101369.19;;;26.31;19.03
61757;BME280;57225;61.460;24.060;2023-05-21T12:50:25;101370.00;;;26.64;18.42
61757;BME280;57225;61.460;24.060;2023-05-21T12:53:10;101374.94;;;26.13;16.38
61757;BME280;57225;61.460;24.060;2023-05-21T12:55:55;101368.66;;;25.90;16.47
61757;BME280;57225;61.460;24.060;2023-05-21T12:58:40;101365.00;;;24.99;15.52
61757;BME280;57225;61.460;24.060;2023-05-21T13:01:25;101354.88;;;25.61;15.97
61757;BME280;57225;61.460;24.060;2023-05-21T13:04:09;101361.69;;;25.55;16.22
61757;BME280;57225;61.460;24.060;2023-05-21T13:06:54;101353.72;;;26.05;17.75
61757;BME280;57225;61.460;24.060;2023-05-21T13:09:38;101360.50;;;26.58;19.55
61757;BME280;57225;61.460;24.060;2023-05-21T13:12:24;101351.53;;;26.74;16.10
61757;BME280;57225;61.460;24.060;2023-05-21T13:15:09;101359.50;;;25.59;15.98
61757;BME280;57225;61.460;24.060;2023-05-21T13:17:54;101344.66;;;26.48;16.54
61757;BME280;57225;61.460;24.060;2023-05-21T13:20:39;101346.78;;;27.19;16.87
61757;BME280;57225;61.460;24.060;2023-05-21T13:23:35;101340.59;;;26.64;16.61
61757;BME280;57225;61.460;24.060;2023-05-21T13:26:19;101356.16;;;25.15;15.71
61757;BME280;57225;61.460;24.060;2023-05-21T13:29:04;101341.72;;;25.18;15.98
61757;BME280;57225;61.460;24.060;2023-05-21T13:31:49;101337.50;;;24.65;16.81
61757;BME280;57225;61.460;24.060;2023-05-21T13:34:34;101345.22;;;25.22;16.42
61757;BME280;57225;61.460;24.060;2023-05-21T13:37:20;101316.19;;;25.60;16.16
61757;BME280;57225;61.460;24.060;2023-05-21T13:40:06;101340.44;;;25.10;17.21
61757;BME280;57225;61.460;24.060;2023-05-21T13:42:50;101339.28;;;24.31;16.57
61757;BME280;57225;61.460;24.060;2023-05-21T13:45:37;101324.84;;;24.84;19.18
61757;BME280;57225;61.460;24.060;2023-05-21T13:48:21;101311.13;;;24.12;17.04
61757;BME280;57225;61.460;24.060;2023-05-21T13:51:06;101327.69;;;23.95;17.36
61757;BME280;57225;61.460;24.060;2023-05-21T13:53:50;101330.28;;;24.42;19.69
61757;BME280;57225;61.460;24.060;2023-05-21T13:56:35;101322.53;;;24.12;18.20
61757;BME280;57225;61.460;24.060;2023-05-21T13:59:19;101318.88;;;24.11;17.32
61757;BME280;57225;61.460;24.060;2023-05-21T14:02:04;101318.84;;;24.02;19.79
61757;BME280;57225;61.460;24.060;2023-05-21T14:04:50;101320.22;;;24.59;19.59
61757;BME280;57225;61.460;24.060;2023-05-21T14:07:34;101313.84;;;23.84;18.77
61757;BME280;57225;61.460;24.060;2023-05-21T14:10:26;101309.09;;;23.81;18.61
61757;BME280;57225;61.460;24.060;2023-05-21T14:13:11;101307.81;;;23.82;18.47
61757;BME280;57225;61.460;24.060;2023-05-21T14:15:55;101308.91;;;23.54;18.38
61757;BME280;57225;61.460;24.060;2023-05-21T14:18:39;101300.25;;;23.57;18.77
61757;BME280;57225;61.460;24.060;2023-05-21T14:21:24;101303.25;;;23.41;18.70
61757;BME280;57225;61.460;24.060;2023-05-21T14:24:09;101301.16;;;23.54;17.54
61757;BME280;57225;61.460;24.060;2023-05-21T14:26:53;101303.66;;;23.74;18.11
61757;BME280;57225;61.460;24.060;2023-05-21T14:29:39;101289.06;;;23.94;20.50
61757;BME280;57225;61.460;24.060;2023-05-21T14:32:23;101299.50;;;23.97;19.15
61757;BME280;57225;61.460;24.060;2023-05-21T14:35:08;101296.53;;;23.70;19.19
61757;BME280;57225;61.460;24.060;2023-05-21T14:37:52;101296.56;;;24.10;21.46